Time;durP1;ratioP1;P1;durP2;ratioP2;P2;SDS_P1;SDS_P2;PMS_P1;PMS_P2;Temp;Humidity;BMP_temperature;BMP_pressure;BME280_temperature;BME280_humidity;BME280_pressure;Samples;Min_cycle;Max_cycle;Signal;HPM_P1;HPM_P2
2021/12/03 00:02:22;;;;;;;6.63;3.80;;;3.90;99.90;;;;;;4994749;28;20037;-57
2021/12/03 00:04:48;;;;;;;5.97;4.45;;;3.90;99.90;;;;;;4994616;28;20026;-63
2021/12/03 00:07:14;;;;;;;4.60;3.47;;;4.00;99.90;;;;;;4994637;28;20042;-63
2021/12/03 00:09:39;;;;;;;6.78;4.50;;;4.00;99.90;;;;;;4994707;28;20050;-62
2021/12/03 00:12:06;;;;;;;5.80;4.57;;;4.00;99.90;;;;;;4993284;28;20666;-54
2021/12/03 00:14:34;;;;;;;5.10;3.83;;;3.80;99.90;;;;;;4993195;28;20030;-59
2021/12/03 00:17:00;;;;;;;5.43;3.95;;;3.80;99.90;;;;;;4994091;28;20030;-63
2021/12/03 00:19:26;;;;;;;5.40;3.80;;;3.90;99.90;;;;;;4994502;28;20026;-59
2021/12/03 00:21:52;;;;;;;5.32;4.28;;;3.80;99.90;;;;;;4992762;28;20034;-60
2021/12/03 00:24:18;;;;;;;4.97;3.75;;;3.80;99.90;;;;;;4992929;28;20495;-67
2021/12/03 00:26:43;;;;;;;4.90;3.35;;;3.80;99.90;;;;;;4994547;28;20126;-55
2021/12/03 00:29:09;;;;;;;4.30;3.63;;;3.90;99.90;;;;;;4993729;28;20399;-56
2021/12/03 00:31:35;;;;;;;5.18;3.53;;;3.80;99.90;;;;;;4993208;28;20035;-56
2021/12/03 00:34:02;;;;;;;4.13;3.10;;;3.80;99.90;;;;;;4993721;28;20026;-64
2021/12/03 00:36:28;;;;;;;4.32;3.17;;;3.80;99.90;;;;;;4993053;28;20038;-61
2021/12/03 00:38:58;;;;;;;4.70;3.92;;;3.70;99.90;;;;;;4993608;28;20464;-63
2021/12/03 00:41:25;;;;;;;6.13;3.97;;;3.70;99.90;;;;;;4992994;28;20038;-64
2021/12/03 00:43:53;;;;;;;3.70;2.88;;;3.70;99.90;;;;;;4994291;28;20063;-62
2021/12/03 00:46:20;;;;;;;4.47;3.30;;;3.70;99.90;;;;;;4993020;28;20328;-63
2021/12/03 00:48:48;;;;;;;4.68;3.72;;;3.70;99.90;;;;;;4994158;28;20073;-60
2021/12/03 00:51:15;;;;;;;4.68;3.70;;;3.60;99.90;;;;;;4992714;28;20424;-63
2021/12/03 00:53:42;;;;;;;4.72;3.97;;;3.50;99.90;;;;;;4994233;28;20054;-63
2021/12/03 00:56:09;;;;;;;6.05;3.65;;;3.50;99.90;;;;;;4990075;28;20390;-56
2021/12/03 00:58:35;;;;;;;6.00;3.50;;;3.60;99.90;;;;;;4974590;28;20027;-56
2021/12/03 01:01:02;;;;;;;5.13;3.38;;;3.50;99.90;;;;;;4973475;28;20395;-60
2021/12/03 01:03:28;;;;;;;5.15;3.72;;;3.50;99.90;;;;;;4974367;28;20502;-60
2021/12/03 01:05:55;;;;;;;6.15;4.20;;;3.50;99.90;;;;;;4973378;28;20029;-62
2021/12/03 01:08:21;;;;;;;3.35;2.97;;;3.40;99.90;;;;;;4956965;28;20035;-67
2021/12/03 01:10:47;;;;;;;4.55;3.33;;;3.50;99.90;;;;;;4974133;28;20038;-58
2021/12/03 01:13:12;;;;;;;5.50;3.80;;;3.30;99.90;;;;;;4956218;28;20033;-60
2021/12/03 01:15:40;;;;;;;5.40;4.00;;;3.40;99.90;;;;;;4956657;28;20038;-55
2021/12/03 01:18:07;;;;;;;5.40;3.75;;;3.30;99.90;;;;;;4973668;28;20063;-58
2021/12/03 01:20:33;;;;;;;6.47;4.22;;;3.40;99.90;;;;;;4973738;28;20058;-60
2021/12/03 01:23:00;;;;;;;6.80;4.50;;;3.40;99.90;;;;;;4973262;28;20118;-58
2021/12/03 01:25:26;;;;;;;6.45;4.40;;;3.40;99.90;;;;;;4956408;28;20099;-59
2021/12/03 01:27:53;;;;;;;7.63;4.32;;;3.40;99.90;;;;;;4973293;28;20109;-57
2021/12/03 01:30:21;;;;;;;6.38;4.47;;;3.50;99.90;;;;;;4973560;28;20035;-58
2021/12/03 01:32:49;;;;;;;7.70;4.03;;;3.40;99.90;;;;;;4955785;28;20121;-62
2021/12/03 01:35:15;;;;;;;5.63;4.45;;;3.30;99.90;;;;;;4973034;28;20050;-58
2021/12/03 01:37:42;;;;;;;6.97;4.75;;;3.20;99.90;;;;;;4973902;28;20042;-67
2021/12/03 01:40:12;;;;;;;5.47;3.90;;;3.30;99.90;;;;;;4973208;28;20445;-59
2021/12/03 01:42:39;;;;;;;5.53;4.43;;;3.30;99.90;;;;;;4957012;28;20388;-60
2021/12/03 01:45:08;;;;;;;5.90;4.57;;;3.30;99.90;;;;;;4974044;28;20031;-60
2021/12/03 01:47:34;;;;;;;6.57;5.40;;;3.30;99.90;;;;;;4974299;28;20023;-67
2021/12/03 01:50:00;;;;;;;7.32;4.78;;;3.20;99.90;;;;;;4972979;28;20038;-63
2021/12/03 01:52:26;;;;;;;6.55;4.95;;;3.20;99.90;;;;;;4974013;28;20035;-66
2021/12/03 01:54:53;;;;;;;6.88;5.28;;;3.30;99.90;;;;;;4973082;28;20102;-80
2021/12/03 01:57:19;;;;;;;6.90;4.68;;;3.30;99.90;;;;;;4972823;28;20142;-63
2021/12/03 01:59:45;;;;;;;7.55;6.00;;;3.20;99.90;;;;;;4973130;28;20035;-62
2021/12/03 02:02:11;;;;;;;7.35;5.00;;;3.10;99.90;;;;;;4971967;28;20033;-61
2021/12/03 02:04:37;;;;;;;7.22;4.97;;;3.20;99.90;;;;;;4972458;28;20034;-66
2021/12/03 02:07:03;;;;;;;7.07;5.47;;;3.10;99.90;;;;;;4974439;28;20321;-65
2021/12/03 02:09:28;;;;;;;7.50;5.63;;;3.00;99.90;;;;;;4973457;28;20392;-67
2021/12/03 02:11:54;;;;;;;7.07;5.40;;;2.90;99.90;;;;;;4955020;28;20037;-61
2021/12/03 02:14:21;;;;;;;8.85;5.55;;;2.80;99.90;;;;;;4973023;28;20027;-56
2021/12/03 02:16:46;;;;;;;6.40;4.80;;;2.80;99.90;;;;;;4973024;28;20037;-67
2021/12/03 02:19:12;;;;;;;8.98;4.90;;;2.90;99.90;;;;;;4972356;28;20385;-54
2021/12/03 02:21:38;;;;;;;7.35;5.18;;;2.90;99.90;;;;;;4972969;28;20142;-62
2021/12/03 02:24:05;;;;;;;7.53;5.72;;;2.90;99.90;;;;;;4954708;28;20444;-64
2021/12/03 02:26:31;;;;;;;10.40;6.25;;;2.90;99.90;;;;;;4955465;28;20066;-62
2021/12/03 02:28:57;;;;;;;7.88;5.50;;;2.80;99.90;;;;;;4972165;28;20070;-66
2021/12/03 02:31:24;;;;;;;13.75;6.13;;;2.80;99.90;;;;;;4972588;28;20035;-60
2021/12/03 02:33:51;;;;;;;12.55;5.68;;;2.80;99.90;;;;;;4972999;28;20023;-55
2021/12/03 02:36:17;;;;;;;8.55;5.68;;;2.80;99.90;;;;;;4972321;28;20030;-61
2021/12/03 02:38:43;;;;;;;9.13;6.43;;;2.80;99.90;;;;;;4972694;28;20105;-62
2021/12/03 02:41:09;;;;;;;9.77;6.32;;;3.00;99.90;;;;;;4972021;28;20126;-59
2021/12/03 02:43:35;;;;;;;8.75;6.25;;;2.80;99.90;;;;;;4971622;28;20018;-61
2021/12/03 02:46:00;;;;;;;8.90;5.80;;;2.80;99.90;;;;;;4971759;28;20035;-58
2021/12/03 02:48:27;;;;;;;7.00;5.32;;;2.80;99.90;;;;;;4939253;28;20477;-65
2021/12/03 02:50:53;;;;;;;8.38;6.47;;;2.60;99.90;;;;;;4972624;28;20066;-59
2021/12/03 02:53:19;;;;;;;9.43;7.00;;;2.70;99.90;;;;;;4972117;28;20073;-65
2021/12/03 02:55:45;;;;;;;9.68;6.85;;;2.70;99.90;;;;;;4972453;28;20027;-56
2021/12/03 02:58:12;;;;;;;9.45;6.43;;;2.70;99.90;;;;;;4991519;28;20046;-61
2021/12/03 03:00:40;;;;;;;10.90;7.10;;;2.70;99.90;;;;;;4974054;28;20038;-57
2021/12/03 03:03:06;;;;;;;10.75;7.53;;;2.60;99.90;;;;;;4991100;28;20035;-57
2021/12/03 03:05:32;;;;;;;11.80;7.90;;;2.70;99.90;;;;;;4992316;28;20113;-62
2021/12/03 03:07:58;;;;;;;13.57;7.43;;;2.60;99.90;;;;;;4991407;28;20433;-67
2021/12/03 03:10:30;;;;;;;11.35;7.65;;;2.60;99.90;;;;;;4991800;28;20038;-62
2021/12/03 03:12:57;;;;;;;10.02;7.43;;;2.60;99.90;;;;;;4991965;28;20062;-58
2021/12/03 03:15:23;;;;;;;11.95;7.55;;;2.60;99.90;;;;;;4991987;28;20109;-60
2021/12/03 03:17:49;;;;;;;9.70;7.57;;;2.60;99.90;;;;;;4991683;28;20438;-59
2021/12/03 03:20:16;;;;;;;10.32;7.50;;;2.70;99.90;;;;;;4991263;28;20042;-67
2021/12/03 03:22:43;;;;;;;13.32;7.88;;;2.60;99.90;;;;;;4974264;28;20440;-58
2021/12/03 03:25:14;;;;;;;9.40;7.10;;;2.70;99.90;;;;;;4991235;28;20027;-64
2021/12/03 03:27:40;;;;;;;10.02;7.50;;;2.60;99.90;;;;;;4991803;28;20072;-57
2021/12/03 03:30:11;;;;;;;8.63;7.15;;;2.60;99.90;;;;;;4991273;28;20077;-60
2021/12/03 03:32:37;;;;;;;18.65;7.85;;;2.70;99.90;;;;;;4991932;28;20422;-63
2021/12/03 03:35:03;;;;;;;11.15;8.00;;;2.60;99.90;;;;;;4991176;28;20034;-61
2021/12/03 03:37:29;;;;;;;11.18;8.10;;;2.60;99.90;;;;;;4991568;28;20360;-65
2021/12/03 03:39:54;;;;;;;11.50;7.70;;;2.60;99.90;;;;;;4991227;28;20029;-67
2021/12/03 03:42:20;;;;;;;11.88;7.35;;;2.60;99.90;;;;;;4991009;28;20037;-56
2021/12/03 03:44:45;;;;;;;11.65;7.75;;;2.60;99.90;;;;;;4991266;28;20018;-58
2021/12/03 03:47:12;;;;;;;12.07;7.60;;;2.60;99.90;;;;;;4991076;28;20032;-58
2021/12/03 03:49:38;;;;;;;10.45;7.55;;;2.30;99.90;;;;;;4991412;28;20113;-53
2021/12/03 03:52:05;;;;;;;9.38;7.50;;;2.30;99.90;;;;;;4990993;28;20085;-63
2021/12/03 03:54:31;;;;;;;10.82;7.88;;;2.30;99.90;;;;;;4991407;28;20030;-58
2021/12/03 03:56:57;;;;;;;10.90;8.10;;;2.30;99.90;;;;;;4984621;28;20121;-59
2021/12/03 03:59:23;;;;;;;12.63;7.68;;;2.40;99.90;;;;;;4974682;28;20027;-61
2021/12/03 04:01:51;;;;;;;10.45;7.30;;;2.40;99.90;;;;;;4975322;28;20440;-61
2021/12/03 04:04:16;;;;;;;12.82;8.48;;;2.30;99.90;;;;;;4974893;28;20027;-62
2021/12/03 04:06:43;;;;;;;15.98;8.65;;;2.30;99.90;;;;;;4975499;28;20053;-68
2021/12/03 04:09:11;;;;;;;12.65;8.50;;;2.30;99.90;;;;;;4974886;28;20066;-58
2021/12/03 04:11:36;;;;;;;14.90;9.48;;;2.40;99.90;;;;;;4975063;28;20030;-57
2021/12/03 04:14:02;;;;;;;15.98;9.35;;;2.40;99.90;;;;;;4957360;28;20381;-65
2021/12/03 04:16:29;;;;;;;12.57;9.25;;;2.40;99.90;;;;;;4975155;28;20163;-56
2021/12/03 04:18:55;;;;;;;15.23;9.05;;;2.40;99.90;;;;;;4975156;28;20413;-65
2021/12/03 04:21:22;;;;;;;15.07;9.32;;;2.40;99.90;;;;;;4974415;28;20039;-68
2021/12/03 04:23:47;;;;;;;14.90;8.95;;;2.40;99.90;;;;;;4957397;28;20034;-68
2021/12/03 04:26:13;;;;;;;12.35;9.00;;;2.40;99.90;;;;;;4974442;28;20038;-60
2021/12/03 04:28:39;;;;;;;14.35;9.25;;;2.40;99.90;;;;;;4975398;28;20061;-65
2021/12/03 04:31:04;;;;;;;16.80;9.98;;;2.40;99.90;;;;;;4974381;28;20388;-62
2021/12/03 04:33:30;;;;;;;14.20;8.77;;;2.50;99.90;;;;;;4974608;28;20042;-63
2021/12/03 04:35:56;;;;;;;17.75;9.98;;;2.40;99.90;;;;;;4975108;28;20029;-57
2021/12/03 04:38:21;;;;;;;11.68;8.73;;;2.50;99.90;;;;;;4974267;28;20027;-62
2021/12/03 04:40:48;;;;;;;14.63;9.27;;;2.40;99.90;;;;;;4974518;28;20035;-62
2021/12/03 04:43:13;;;;;;;18.40;9.85;;;2.30;99.90;;;;;;4974199;28;20034;-62
2021/12/03 04:45:39;;;;;;;15.60;9.90;;;2.20;99.90;;;;;;4975079;28;20078;-56
2021/12/03 04:48:06;;;;;;;12.38;8.65;;;2.30;99.90;;;;;;4974227;28;20511;-63
2021/12/03 04:50:36;;;;;;;13.50;8.98;;;2.30;99.90;;;;;;4974730;28;20027;-59
2021/12/03 04:53:03;;;;;;;15.70;8.77;;;2.40;99.90;;;;;;4974701;28;20031;-61
2021/12/03 04:55:30;;;;;;;13.02;10.00;;;2.30;99.90;;;;;;4957038;28;20026;-66
2021/12/03 04:57:56;;;;;;;13.07;8.20;;;2.20;99.90;;;;;;4974623;28;20057;-66
2021/12/03 05:00:47;;;;;;;16.98;9.43;;;2.20;99.90;;;;;;4974146;28;20034;-58
2021/12/03 05:03:13;;;;;;;17.83;9.35;;;2.20;99.90;;;;;;4962900;28;20531;-67
2021/12/03 05:05:44;;;;;;;16.67;9.50;;;2.20;99.90;;;;;;4974532;28;20106;-67
2021/12/03 05:08:11;;;;;;;14.20;8.55;;;2.20;99.90;;;;;;4973357;28;20034;-60
2021/12/03 05:10:40;;;;;;;12.15;8.90;;;2.10;99.90;;;;;;4974390;28;20057;-61
2021/12/03 05:13:15;;;;;;;17.75;9.68;;;2.20;99.90;;;;;;4973619;28;20527;-60
2021/12/03 05:15:42;;;;;;;12.80;8.98;;;2.20;99.90;;;;;;4957663;28;20023;-62
2021/12/03 05:18:10;;;;;;;15.98;8.35;;;2.00;99.90;;;;;;4973557;28;20031;-59
2021/12/03 05:20:37;;;;;;;16.55;9.23;;;2.00;99.90;;;;;;4974080;28;20035;-61
2021/12/03 05:23:03;;;;;;;15.63;9.15;;;1.90;99.90;;;;;;4974224;28;20035;-62
2021/12/03 05:25:29;;;;;;;14.75;7.88;;;1.80;99.90;;;;;;4973298;28;20027;-61
2021/12/03 05:27:56;;;;;;;15.63;8.27;;;1.90;99.90;;;;;;4973360;28;20083;-61
2021/12/03 05:30:22;;;;;;;16.00;8.93;;;2.00;99.90;;;;;;4956554;28;20034;-64
2021/12/03 05:32:48;;;;;;;14.00;9.80;;;2.00;99.90;;;;;;4974266;28;20034;-62
2021/12/03 05:35:14;;;;;;;41.67;10.45;;;2.00;99.90;;;;;;4972933;28;20042;-67
2021/12/03 05:37:40;;;;;;;19.42;9.88;;;2.10;99.90;;;;;;4973557;28;20027;-59
2021/12/03 05:40:08;;;;;;;16.55;8.50;;;2.20;99.90;;;;;;4972788;28;20037;-67
2021/12/03 05:42:34;;;;;;;14.27;8.85;;;2.10;99.90;;;;;;4973511;28;20046;-65
2021/12/03 05:44:59;;;;;;;12.77;8.63;;;2.10;99.90;;;;;;4956118;28;20031;-61
2021/12/03 05:47:25;;;;;;;12.65;8.35;;;2.00;99.90;;;;;;4955365;28;20097;-59
2021/12/03 05:49:51;;;;;;;13.43;8.18;;;2.10;99.90;;;;;;4973450;28;20042;-55
2021/12/03 05:52:17;;;;;;;16.15;9.27;;;2.20;99.90;;;;;;4972851;28;20034;-59
2021/12/03 05:54:45;;;;;;;13.35;8.10;;;2.20;99.90;;;;;;4963252;28;20580;-58
2021/12/03 05:57:11;;;;;;;16.67;8.70;;;2.10;99.90;;;;;;4953287;28;20051;-61
2021/12/03 05:59:37;;;;;;;13.63;7.75;;;2.00;99.90;;;;;;4953300;29;20381;-60
2021/12/03 06:02:03;;;;;;;21.15;9.35;;;2.00;99.90;;;;;;4969255;28;20054;-61
2021/12/03 06:04:29;;;;;;;14.52;8.70;;;2.00;99.90;;;;;;4971985;28;20027;-59
2021/12/03 06:06:55;;;;;;;18.25;8.40;;;1.90;99.90;;;;;;4972802;28;20468;-61
2021/12/03 06:09:21;;;;;;;11.38;6.78;;;1.70;99.90;;;;;;4972124;28;20058;-64
2021/12/03 06:11:47;;;;;;;12.07;7.55;;;1.70;99.90;;;;;;4955419;28;20031;-60
2021/12/03 06:14:12;;;;;;;14.38;6.50;;;1.80;99.90;;;;;;4972252;28;20043;-60
2021/12/03 06:16:39;;;;;;;13.25;5.93;;;1.70;99.90;;;;;;4972410;28;20468;-60
2021/12/03 06:19:05;;;;;;;15.70;7.15;;;1.80;99.90;;;;;;4955036;28;20054;-57
2021/12/03 06:21:31;;;;;;;12.75;6.43;;;1.70;99.90;;;;;;4971725;28;20074;-61
2021/12/03 06:23:57;;;;;;;17.92;6.80;;;1.80;99.90;;;;;;4972757;28;20031;-61
2021/12/03 06:26:22;;;;;;;12.80;6.80;;;1.70;99.90;;;;;;4972142;28;20114;-59
2021/12/03 06:28:48;;;;;;;8.32;5.57;;;1.70;99.90;;;;;;4972506;28;20357;-63
2021/12/03 06:31:14;;;;;;;13.43;6.55;;;1.80;99.90;;;;;;4954439;28;20235;-63
2021/12/03 06:33:39;;;;;;;15.75;7.28;;;1.60;99.90;;;;;;4972118;28;20038;-60
2021/12/03 06:36:06;;;;;;;8.70;5.78;;;1.60;99.90;;;;;;4972218;28;20039;-58
2021/12/03 06:38:32;;;;;;;10.27;5.32;;;1.50;99.90;;;;;;4971729;28;20030;-60
2021/12/03 06:40:58;;;;;;;9.00;6.32;;;1.50;99.90;;;;;;4954689;28;20045;-60
2021/12/03 06:43:24;;;;;;;10.40;4.85;;;1.40;99.90;;;;;;4971807;28;20038;-63
2021/12/03 06:45:49;;;;;;;9.43;5.78;;;1.50;99.90;;;;;;4971899;28;20428;-64
2021/12/03 06:48:16;;;;;;;14.35;6.78;;;1.40;99.90;;;;;;4971198;28;20034;-59
2021/12/03 06:50:43;;;;;;;9.88;5.85;;;1.40;99.90;;;;;;4971724;28;20496;-60
2021/12/03 06:53:15;;;;;;;11.50;5.82;;;1.40;99.90;;;;;;4971793;28;20042;-79
2021/12/03 06:55:48;;;;;;;;;;;1.30;99.90;;;;;;4972513;28;20026;-57
2021/12/03 06:58:16;;;;;;;10.25;6.07;;;1.10;99.90;;;;;;4971538;28;20064;-63
2021/12/03 07:00:44;;;;;;;10.75;5.60;;;1.10;99.90;;;;;;4954692;28;20542;-58
2021/12/03 07:03:10;;;;;;;10.98;5.45;;;1.00;99.90;;;;;;4971703;28;20065;-77
2021/12/03 07:05:36;;;;;;;11.55;6.88;;;1.10;99.90;;;;;;4971762;28;20058;-62
2021/12/03 07:08:02;;;;;;;13.75;5.97;;;1.10;99.90;;;;;;4972423;28;20041;-60
2021/12/03 07:10:28;;;;;;;17.30;6.50;;;1.10;99.90;;;;;;4971189;28;20031;-61
2021/12/03 07:12:54;;;;;;;9.65;7.20;;;1.00;99.90;;;;;;4971948;28;20035;-55
2021/12/03 07:15:20;;;;;;;10.13;6.05;;;1.00;99.90;;;;;;4954268;28;20376;-60
2021/12/03 07:17:50;;;;;;;11.90;5.80;;;1.10;99.90;;;;;;4971492;28;20500;-59
2021/12/03 07:20:16;;;;;;;12.50;6.70;;;1.10;99.90;;;;;;4971822;28;20089;-56
2021/12/03 07:22:41;;;;;;;18.38;6.70;;;1.00;99.90;;;;;;4972467;28;20130;-59
2021/12/03 07:25:08;;;;;;;10.55;5.85;;;1.10;99.90;;;;;;4972276;28;20105;-61
2021/12/03 07:27:34;;;;;;;13.05;6.93;;;1.10;99.90;;;;;;4971902;28;20035;-61
2021/12/03 07:30:00;;;;;;;10.00;6.57;;;1.20;99.90;;;;;;4972412;28;20041;-61
2021/12/03 07:32:27;;;;;;;15.40;5.95;;;1.20;99.90;;;;;;4975395;28;20380;-57
2021/12/03 07:34:52;;;;;;;13.98;5.85;;;1.10;99.90;;;;;;4975729;28;20022;-60
2021/12/03 07:37:18;;;;;;;10.35;6.28;;;1.10;99.90;;;;;;4957670;28;20026;-65
2021/12/03 07:39:44;;;;;;;21.63;6.68;;;1.40;99.90;;;;;;4958217;28;20085;-62
2021/12/03 07:42:10;;;;;;;10.07;5.93;;;1.70;99.90;;;;;;4957943;28;20042;-61
2021/12/03 07:44:36;;;;;;;11.23;5.45;;;2.10;99.90;;;;;;4974997;28;20026;-58
2021/12/03 07:47:03;;;;;;;15.95;5.95;;;2.80;99.90;;;;;;4975353;28;20023;-60
2021/12/03 07:49:28;;;;;;;11.07;5.75;;;3.50;99.90;;;;;;4974556;28;20441;-61
2021/12/03 07:51:54;;;;;;;12.80;6.97;;;4.10;99.90;;;;;;4975391;28;20035;-60
2021/12/03 07:54:21;;;;;;;12.70;5.75;;;4.40;99.90;;;;;;4974733;28;20027;-63
2021/12/03 07:56:47;;;;;;;13.85;5.90;;;4.40;99.90;;;;;;4974826;28;20054;-65
2021/12/03 07:59:13;;;;;;;8.68;5.47;;;3.90;99.90;;;;;;4974678;28;20088;-59
2021/12/03 08:01:43;;;;;;;17.38;6.35;;;4.40;99.90;;;;;;4974640;28;20034;-61
2021/12/03 08:04:10;;;;;;;7.97;4.50;;;5.10;99.90;;;;;;4974856;28;20055;-61
2021/12/03 08:06:39;;;;;;;8.18;4.70;;;5.70;99.90;;;;;;4973760;28;20077;-59
2021/12/03 08:09:05;;;;;;;6.35;5.10;;;5.90;99.90;;;;;;4968300;28;20038;-62
2021/12/03 08:11:31;;;;;;;9.25;5.63;;;5.50;99.90;;;;;;4973161;28;20030;-61
2021/12/03 08:13:57;;;;;;;15.55;5.45;;;5.70;99.90;;;;;;4974693;28;20341;-62
2021/12/03 08:16:23;;;;;;;7.20;4.95;;;6.40;99.90;;;;;;4974629;28;20034;-61
2021/12/03 08:18:48;;;;;;;10.80;5.38;;;6.60;99.90;;;;;;4974947;28;20519;-62
2021/12/03 08:21:14;;;;;;;9.88;5.22;;;7.10;99.90;;;;;;4974674;28;20045;-62
2021/12/03 08:23:40;;;;;;;12.60;5.38;;;6.60;99.90;;;;;;4974562;28;20161;-61
2021/12/03 08:26:06;;;;;;;6.68;4.57;;;6.40;99.90;;;;;;4974870;28;20114;-60
2021/12/03 08:28:32;;;;;;;9.85;5.75;;;5.90;99.90;;;;;;4974270;28;20086;-62
2021/12/03 08:30:58;;;;;;;10.82;6.05;;;5.90;99.90;;;;;;4956596;28;20046;-61
2021/12/03 08:33:24;;;;;;;7.97;5.18;;;5.60;99.90;;;;;;4974091;28;20038;-65
2021/12/03 08:35:50;;;;;;;9.77;5.63;;;5.50;99.90;;;;;;4974118;28;20106;-58
2021/12/03 08:38:16;;;;;;;8.20;4.82;;;6.30;99.90;;;;;;4956638;28;20121;-74
2021/12/03 08:40:42;;;;;;;9.80;4.55;;;7.30;99.90;;;;;;4973677;28;20361;-65
2021/12/03 08:43:07;;;;;;;7.35;5.28;;;7.90;99.70;;;;;;4973278;28;20030;-59
2021/12/03 08:45:35;;;;;;;6.80;4.72;;;8.00;98.70;;;;;;4946292;29;20513;-61
2021/12/03 08:48:02;;;;;;;10.00;5.28;;;7.40;99.40;;;;;;4971067;28;20043;-64
2021/12/03 08:50:34;;;;;;;8.50;4.57;;;8.00;99.50;;;;;;4958477;28;20063;-57
2021/12/03 08:55:30;;;;;;;7.80;4.53;;;7.20;99.70;;;;;;4954606;29;20027;-57
2021/12/03 08:57:56;;;;;;;10.13;5.05;;;7.10;99.90;;;;;;4968376;28;20082;-62
2021/12/03 09:00:22;;;;;;;9.30;4.53;;;6.40;99.90;;;;;;4972147;28;20476;-62
2021/12/03 09:02:49;;;;;;;10.00;4.97;;;6.60;99.90;;;;;;4973962;28;20054;-61
2021/12/03 09:05:14;;;;;;;8.70;5.50;;;6.30;99.90;;;;;;4974093;28;20523;-61
2021/12/03 09:07:41;;;;;;;11.77;6.50;;;5.70;99.90;;;;;;4972090;28;20035;-63
2021/12/03 09:10:11;;;;;;;14.68;5.63;;;5.70;99.90;;;;;;4973397;28;20081;-61
2021/12/03 09:12:37;;;;;;;10.27;5.80;;;5.50;99.90;;;;;;4988507;28;20113;-60
2021/12/03 09:15:06;;;;;;;10.35;5.28;;;5.10;99.90;;;;;;4993454;28;20106;-61
2021/12/03 09:17:45;;;;;;;12.63;5.85;;;4.50;99.90;;;;;;4991365;28;20120;-60
2021/12/03 09:20:43;;;;;;;11.02;5.97;;;4.40;99.90;;;;;;4993214;28;20022;-60
2021/12/03 09:23:12;;;;;;;9.00;5.78;;;4.70;99.90;;;;;;4992692;28;20452;-61
2021/12/03 09:25:45;;;;;;;12.32;6.55;;;4.90;99.90;;;;;;4991108;28;20282;-62
2021/12/03 09:28:13;;;;;;;10.73;6.03;;;4.80;99.90;;;;;;4993100;28;20365;-61
2021/12/03 09:30:41;;;;;;;11.00;6.45;;;4.80;99.90;;;;;;4986483;28;20224;-62
2021/12/03 09:33:10;;;;;;;12.73;6.43;;;4.40;99.90;;;;;;4987065;28;20033;-60
2021/12/03 09:35:46;;;;;;;15.43;6.72;;;4.20;99.90;;;;;;4992109;28;20521;-61
2021/12/03 09:38:13;;;;;;;10.85;6.53;;;4.00;99.90;;;;;;4991458;28;20026;-53
2021/12/03 09:40:39;;;;;;;10.70;6.53;;;3.90;99.90;;;;;;4992049;28;20503;-61
2021/12/03 09:43:07;;;;;;;15.70;7.35;;;3.80;99.90;;;;;;4980815;28;20062;-61
2021/12/03 09:45:33;;;;;;;16.75;6.78;;;4.00;99.90;;;;;;4972597;28;20397;-59
2021/12/03 09:48:03;;;;;;;13.10;6.65;;;4.00;99.90;;;;;;4972937;28;20037;-61
2021/12/03 09:50:29;;;;;;;10.75;6.57;;;3.70;99.90;;;;;;4971280;28;20031;-61
2021/12/03 09:55:33;;;;;;;16.63;7.25;;;4.30;99.90;;;;;;4985895;28;20030;-61
2021/12/03 09:58:27;;;;;;;11.02;6.35;;;4.10;99.90;;;;;;4974261;28;20134;-58
2021/12/03 10:01:02;;;;;;;16.83;8.57;;;4.20;99.90;;;;;;4972258;28;20452;-61
2021/12/03 10:14:25;;;;;;;12.88;6.85;;;4.00;99.90;;;;;;4971976;28;20042;-67
2021/12/03 10:20:09;;;;;;;14.45;6.85;;;4.80;99.90;;;;;;4898249;28;20105;-61
2021/12/03 10:39:18;;;;;;;9.82;7.05;;;3.20;99.90;;;;;;4971878;28;20120;-61
2021/12/03 11:54:44;;;;;;;7.90;4.95;;;3.80;99.90;;;;;;4954866;29;20130;-58
2021/12/03 13:10:56;;;;;;;7.93;4.53;;;3.20;99.90;;;;;;4954159;29;20193;-61
2021/12/03 14:32:25;;;;;;;20.52;5.90;;;2.70;99.90;;;;;;4953625;29;20035;-62
2021/12/03 14:44:28;;;;;;;10.25;5.10;;;2.70;99.90;;;;;;4953216;29;20377;-61
2021/12/03 14:55:48;;;;;;;6.90;4.40;;;2.80;99.90;;;;;;4937280;28;20393;-60
2021/12/03 14:58:19;;;;;;;9.05;4.75;;;2.80;99.90;;;;;;4968841;28;20398;-61
2021/12/03 15:01:13;;;;;;;12.70;4.90;;;2.70;99.90;;;;;;4973188;28;20164;-60
2021/12/03 15:06:12;;;;;;;6.32;4.55;;;2.80;99.90;;;;;;4972045;28;20500;-60
2021/12/03 15:08:54;;;;;;;6.85;4.35;;;2.80;99.90;;;;;;4954090;28;20385;-64
2021/12/03 15:27:28;;;;;;;7.20;3.92;;;2.80;99.90;;;;;;4971837;28;20365;-57
2021/12/03 15:35:19;;;;;;;16.90;3.70;;;2.80;99.90;;;;;;4960508;28;20039;-60
2021/12/03 15:56:39;;;;;;;;;;;2.90;99.90;;;;;;4974931;28;20464;-60
2021/12/03 16:03:31;;;;;;;12.18;5.28;;;3.10;99.90;;;;;;4953380;28;19977;-56
2021/12/03 16:04:49;;;;;;;6.55;3.20;;;3.00;99.90;;;;;;4956231;28;20491;-64
2021/12/03 16:12:47;;;;;;;6.20;3.40;;;2.90;99.90;;;;;;4964531;28;20808;-62
2021/12/03 16:15:27;;;;;;;7.97;2.92;;;3.00;99.90;;;;;;4959648;28;20196;-62
2021/12/03 16:18:36;;;;;;;5.35;3.33;;;3.00;99.90;;;;;;4971166;28;20023;-61
2021/12/03 16:51:12;;;;;;;4.20;2.58;;;2.90;99.90;;;;;;4970063;28;20042;-60
2021/12/03 16:53:39;;;;;;;6.75;3.47;;;3.00;99.90;;;;;;4961078;28;20449;-60
2021/12/03 16:58:33;;;;;;;9.07;4.18;;;3.00;99.90;;;;;;4997059;28;20359;-59
2021/12/03 17:01:06;;;;;;;8.43;2.85;;;3.00;99.90;;;;;;4990061;28;20107;-61
2021/12/03 17:03:57;;;;;;;7.13;3.15;;;3.10;99.90;;;;;;4972753;28;20428;-63
2021/12/03 17:14:05;;;;;;;7.18;3.65;;;3.00;99.90;;;;;;4983310;28;20113;-61
2021/12/03 17:16:57;;;;;;;8.32;4.47;;;3.00;99.90;;;;;;4985526;28;20074;-62
2021/12/03 17:20:19;;;;;;;6.47;2.70;;;3.10;99.90;;;;;;4985340;28;20035;-61
2021/12/03 17:28:27;;;;;;;11.73;5.25;;;3.00;99.90;;;;;;4996901;28;20113;-57
2021/12/03 17:47:25;;;;;;;7.75;4.50;;;3.10;99.90;;;;;;4983178;28;20049;-61
2021/12/03 17:50:11;;;;;;;9.95;5.32;;;3.10;99.90;;;;;;4981504;28;20041;-62
2021/12/03 17:58:06;;;;;;;10.90;4.93;;;3.00;99.90;;;;;;4965081;28;20122;-62
2021/12/03 18:03:19;;;;;;;12.00;6.05;;;3.10;99.90;;;;;;4963080;28;20154;-61
2021/12/03 18:08:26;;;;;;;9.63;5.35;;;3.10;99.90;;;;;;4963651;28;20023;-60
2021/12/03 18:11:24;;;;;;;7.90;5.00;;;3.10;99.90;;;;;;4962869;28;20045;-61
2021/12/03 18:49:45;;;;;;;12.80;6.57;;;3.20;99.90;;;;;;4966173;28;20042;-60
2021/12/03 18:56:56;;;;;;;9.88;6.10;;;3.20;99.90;;;;;;4978386;28;20053;-63
2021/12/03 18:59:26;;;;;;;12.90;6.60;;;3.20;99.90;;;;;;4975449;28;20464;-62
2021/12/03 19:01:53;;;;;;;12.77;5.82;;;3.20;99.90;;;;;;4977541;28;20038;-59
2021/12/03 19:04:30;;;;;;;9.82;5.82;;;3.20;99.90;;;;;;4959079;28;20062;-60
2021/12/03 19:07:07;;;;;;;11.55;5.65;;;3.20;99.90;;;;;;4980520;28;20722;-61
2021/12/03 19:09:37;;;;;;;13.02;5.40;;;3.30;99.90;;;;;;4984827;28;20110;-60
2021/12/03 19:14:33;;;;;;;9.50;4.75;;;3.30;99.90;;;;;;4983763;28;20161;-59
2021/12/03 19:16:59;;;;;;;10.13;5.45;;;3.30;99.90;;;;;;4980672;28;20054;-61
2021/12/03 19:19:26;;;;;;;7.78;4.72;;;3.10;99.90;;;;;;4984033;28;20062;-59
2021/12/03 19:21:54;;;;;;;9.30;4.88;;;3.10;99.90;;;;;;4980874;28;20081;-59
2021/12/03 19:24:20;;;;;;;9.05;5.28;;;3.10;99.90;;;;;;4980618;28;20118;-57
2021/12/03 19:26:46;;;;;;;12.32;5.95;;;3.10;99.90;;;;;;4963370;28;20034;-61
2021/12/03 19:29:16;;;;;;;10.95;5.28;;;3.00;99.90;;;;;;4985304;28;20050;-60
2021/12/03 19:31:43;;;;;;;10.20;5.75;;;3.10;99.90;;;;;;4966658;28;20069;-58
2021/12/03 19:34:10;;;;;;;8.10;5.53;;;3.00;99.90;;;;;;4969365;28;20437;-63
2021/12/03 19:36:40;;;;;;;10.90;5.78;;;3.10;99.90;;;;;;4972601;28;20149;-55
2021/12/03 19:39:08;;;;;;;8.13;5.15;;;3.00;99.90;;;;;;4986653;28;20031;-60
2021/12/03 19:41:39;;;;;;;8.40;5.00;;;3.00;99.90;;;;;;4972584;28;20073;-60
2021/12/03 19:44:11;;;;;;;9.53;5.87;;;3.00;99.90;;;;;;4985644;28;20336;-60
2021/12/03 19:46:39;;;;;;;9.40;5.13;;;3.10;99.90;;;;;;4966829;28;20039;-59
2021/12/03 19:51:35;;;;;;;7.78;4.78;;;3.00;99.90;;;;;;4993130;28;20126;-60
2021/12/03 19:54:01;;;;;;;14.05;6.30;;;2.90;99.90;;;;;;4984132;28;20051;-60
2021/12/03 19:56:30;;;;;;;11.75;6.68;;;2.90;99.90;;;;;;4979347;28;20046;-61
2021/12/03 19:58:58;;;;;;;7.38;4.88;;;3.00;99.90;;;;;;4955796;28;20039;-58
2021/12/03 20:01:24;;;;;;;7.45;4.93;;;3.00;99.90;;;;;;4963537;28;20023;-60
2021/12/03 20:03:52;;;;;;;7.70;5.25;;;3.10;99.90;;;;;;4953697;28;20085;-65
2021/12/03 20:06:18;;;;;;;9.25;5.63;;;3.10;99.90;;;;;;4957881;28;20031;-60
2021/12/03 20:08:44;;;;;;;9.70;5.30;;;3.10;99.90;;;;;;4959994;28;20528;-60
2021/12/03 20:11:10;;;;;;;7.68;5.18;;;3.20;99.90;;;;;;4962970;28;20069;-60
2021/12/03 20:13:38;;;;;;;12.55;5.57;;;3.10;99.90;;;;;;4972898;28;20117;-58
2021/12/03 20:18:44;;;;;;;8.63;5.28;;;3.60;99.90;;;;;;4961465;28;20045;-59
2021/12/03 20:21:10;;;;;;;9.52;5.00;;;3.70;99.90;;;;;;4973487;28;20034;-67
2021/12/03 20:23:53;;;;;;;13.95;5.50;;;3.60;99.90;;;;;;4963970;28;20099;-55
2021/12/03 20:29:04;;;;;;;6.28;4.20;;;3.40;99.90;;;;;;4963893;28;20039;-61
2021/12/03 20:31:34;;;;;;;9.25;4.18;;;3.30;99.90;;;;;;4957137;28;20030;-58
2021/12/03 20:34:25;;;;;;;6.45;4.80;;;3.30;99.90;;;;;;4974267;28;20034;-61